Terminal Aerodrome Forecast
Issued by NWS Billings, MT

Home | Current Version | Previous Version | Text Only | Print | Product List | Glossary On
Versions: 1 2 3 4 5 6 7 8 9 10 11 12
000
FTUS45 KBYZ 191133
TAFMLS
TAF
KMLS 191133Z 1912/2012 VRB05KT P6SM FEW250
     FM191500 31014KT P6SM FEW070 SCT220
     FM200200 03012KT P6SM FEW100 BKN200=

USA.gov is the U.S. government's official web portal to all federal, state and local government web resources and services.